Time;durP1;ratioP1;P1;durP2;ratioP2;P2;SDS_P1;SDS_P2;PMS_P1;PMS_P2;Temp;Humidity;BMP_temperature;BMP_pressure;BME280_temperature;BME280_humidity;BME280_pressure;Samples;Min_cycle;Max_cycle;Signal;HPM_P1;HPM_P2
2022/06/10 00:00:23;;;;;;;4.33;2.40;;;;;;;18.02;55.68;99319.88;6992450;28;20225;-80
2022/06/10 00:03:45;;;;;;;4.60;2.37;;;;;;;17.52;55.97;99260.63;6983620;28;20251;-80
2022/06/10 00:07:07;;;;;;;4.90;2.80;;;;;;;17.70;56.60;99318.56;6981678;28;20206;-80
2022/06/10 00:10:30;;;;;;;3.20;2.33;;;;;;;17.74;56.07;99325.22;6983414;28;20232;-79
2022/06/10 00:13:52;;;;;;;2.90;2.50;;;;;;;17.36;56.19;99319.41;6981512;28;20207;-80
2022/06/10 00:17:13;;;;;;;4.77;2.77;;;;;;;17.29;56.77;99326.03;6979021;28;20208;-80
2022/06/10 00:20:35;;;;;;;2.93;2.63;;;;;;;17.39;56.79;99326.31;6982358;28;20232;-80
2022/06/10 00:23:57;;;;;;;3.73;2.93;;;;;;;17.10;56.46;99257.16;6988814;28;20658;-80
2022/06/10 00:31:32;;;;;;;4.03;2.60;;;;;;;17.20;57.35;99320.09;6970561;28;20224;-80
2022/06/10 00:34:54;;;;;;;6.13;2.93;;;;;;;17.20;57.36;99321.97;6984793;28;20257;-80
2022/06/10 00:38:16;;;;;;;6.50;2.97;;;;;;;17.22;56.98;99328.84;6980493;28;20342;-80
2022/06/10 00:41:41;;;;;;;4.30;2.90;;;;;;;17.35;56.93;99334.06;6980671;28;20252;-80
2022/06/10 00:45:04;;;;;;;4.83;2.70;;;;;;;17.32;56.78;99340.00;6982850;28;20252;-80
2022/06/10 00:48:32;;;;;;;5.17;2.90;;;;;;;17.20;57.38;99338.31;6977436;28;20206;-80
2022/06/10 00:51:55;;;;;;;2.40;2.30;;;;;;;17.15;57.36;99341.75;6978511;28;20262;-80
2022/06/10 00:55:16;;;;;;;3.87;2.60;;;;;;;17.06;57.16;99318.66;6978837;28;20208;-80
2022/06/10 00:58:40;;;;;;;2.90;2.63;;;;;;;17.55;55.73;99328.31;6951809;28;20266;-80
2022/06/10 01:02:05;;;;;;;2.80;2.50;;;;;;;17.42;55.73;99309.47;6951161;28;20724;-80
2022/06/10 01:05:28;;;;;;;3.60;2.63;;;;;;;17.47;55.22;99323.22;6950978;28;20683;-80
2022/06/10 01:08:51;;;;;;;3.10;2.80;;;;;;;17.11;56.96;99337.00;6950561;28;20282;-80
2022/06/10 01:12:50;;;;;;;5.33;2.60;;;;;;;17.40;56.04;99333.41;6950456;28;20229;-79
2022/06/10 01:16:17;;;;;;;4.57;2.70;;;;;;;17.38;56.10;99333.66;6892689;28;20746;-80
2022/06/10 01:19:56;;;;;;;5.80;2.87;;;;;;;17.06;56.42;99325.97;6902632;28;20315;-79
2022/06/10 01:23:34;;;;;;;3.17;2.70;;;;;;;16.85;56.80;99337.41;6963674;28;20200;-79
2022/06/10 01:31:13;;;;;;;3.10;2.80;;;;;;;16.70;58.13;99351.44;6976906;28;20219;-79
2022/06/10 01:34:41;;;;;;;4.90;2.90;;;;;;;16.74;57.64;99324.59;6976532;28;20296;-79
2022/06/10 01:38:06;;;;;;;3.80;2.47;;;;;;;16.91;57.29;99347.38;6975929;28;20737;-80
2022/06/10 01:41:33;;;;;;;5.60;3.13;;;;;;;16.71;57.37;99349.56;6977258;28;20320;-80
2022/06/10 01:44:57;;;;;;;3.93;3.23;;;;;;;16.31;58.20;99362.84;6976956;28;20680;-79
2022/06/10 01:48:28;;;;;;;4.80;3.00;;;;;;;16.70;57.26;99342.47;6976577;28;20628;-79
2022/06/10 01:51:57;;;;;;;4.23;2.47;;;;;;;16.75;57.01;99358.94;6976287;28;20306;-79
2022/06/10 01:55:22;;;;;;;7.50;3.10;;;;;;;16.56;57.70;99349.13;6975880;28;20204;-79
2022/06/10 01:58:46;;;;;;;5.47;3.23;;;;;;;16.78;56.98;99355.72;6976384;28;20230;-79
2022/06/10 02:02:10;;;;;;;3.67;3.07;;;;;;;16.73;56.96;99352.88;6977499;28;20226;-79
2022/06/10 02:05:36;;;;;;;5.77;3.20;;;;;;;16.64;57.62;99354.28;6977020;28;20299;-79
2022/06/10 02:09:00;;;;;;;5.17;3.00;;;;;;;16.49;57.95;99341.06;6976034;28;20188;-79
2022/06/10 02:12:25;;;;;;;4.20;3.10;;;;;;;16.78;56.62;99351.13;6976995;28;20318;-79
2022/06/10 02:15:51;;;;;;;3.97;2.90;;;;;;;16.22;56.93;99328.81;6977300;28;20631;-79
2022/06/10 02:19:18;;;;;;;4.87;3.10;;;;;;;16.53;57.71;99372.22;6976521;28;20228;-79
2022/06/10 02:22:45;;;;;;;5.60;3.03;;;;;;;16.53;57.69;99374.94;6977755;28;20228;-80
2022/06/10 02:26:07;;;;;;;4.73;3.00;;;;;;;16.82;56.92;99367.84;6978035;28;20297;-79
2022/06/10 02:29:37;;;;;;;6.03;2.90;;;;;;;16.79;56.89;99377.28;6979866;28;20587;-79
2022/06/10 02:32:59;;;;;;;3.40;3.10;;;;;;;16.64;57.21;99370.59;6979712;28;20211;-80
2022/06/10 02:36:25;;;;;;;6.57;3.20;;;;;;;16.55;57.12;99388.31;6983069;28;20285;-79
2022/06/10 02:39:54;;;;;;;3.83;2.80;;;;;;;16.37;57.71;99385.56;6981799;28;20231;-79
2022/06/10 02:43:21;;;;;;;4.40;3.23;;;;;;;16.41;57.65;99382.22;6981496;28;20223;-80
2022/06/10 02:46:49;;;;;;;4.63;2.87;;;;;;;16.61;56.85;99385.50;6982440;28;20222;-79
2022/06/10 02:50:12;;;;;;;5.43;3.53;;;;;;;16.55;57.27;99380.13;6981849;28;20315;-79
2022/06/10 02:53:34;;;;;;;5.57;3.00;;;;;;;16.60;56.75;99383.84;6982221;28;20205;-80
2022/06/10 02:56:57;;;;;;;3.20;2.90;;;;;;;16.52;57.00;99378.69;6980271;28;20252;-80
2022/06/10 03:04:15;;;;;;;3.93;3.33;;;;;;;16.46;57.20;99393.22;6955911;28;20200;-79
2022/06/10 03:07:43;;;;;;;6.93;3.40;;;;;;;16.48;57.44;99412.06;6954822;28;20223;-80
2022/06/10 03:11:11;;;;;;;6.63;3.10;;;;;;;16.27;58.22;99418.75;6956473;28;20226;-79
2022/06/10 03:14:43;;;;;;;3.80;3.20;;;;;;;16.59;57.40;99401.25;6956243;28;20188;-80
2022/06/10 03:18:11;;;;;;;4.93;3.07;;;;;;;16.74;56.73;99407.09;6954841;28;20231;-79
2022/06/10 03:21:42;;;;;;;5.80;3.30;;;;;;;16.67;56.66;99411.81;6955629;28;20253;-80
2022/06/10 03:25:14;;;;;;;5.67;3.80;;;;;;;16.15;58.00;99411.59;6955470;28;20329;-80
2022/06/10 03:28:41;;;;;;;4.63;3.40;;;;;;;16.38;58.14;99428.06;6954904;28;20217;-79
2022/06/10 03:32:09;;;;;;;4.37;3.27;;;;;;;16.53;57.63;99434.00;6954657;28;20243;-79
2022/06/10 03:35:35;;;;;;;3.90;3.17;;;;;;;16.44;57.66;99417.13;6955366;28;20242;-80
2022/06/10 03:38:56;;;;;;;5.43;3.50;;;;;;;16.16;58.04;99422.22;6954061;28;20230;-79
2022/06/10 03:42:19;;;;;;;6.13;3.60;;;;;;;16.22;58.66;99448.53;6954489;28;20282;-79
2022/06/10 03:45:43;;;;;;;6.30;3.70;;;;;;;15.95;59.07;99440.88;6953746;28;20228;-79
2022/06/10 03:49:11;;;;;;;4.83;2.93;;;;;;;16.45;58.55;99447.91;6954094;28;20214;-80
2022/06/10 03:52:34;;;;;;;6.73;3.93;;;;;;;16.66;57.69;99445.56;6958425;28;20243;-80
2022/06/10 03:55:56;;;;;;;5.97;3.40;;;;;;;16.64;57.56;99458.53;6962204;28;20224;-80
2022/06/10 03:59:17;;;;;;;4.57;3.57;;;;;;;16.69;57.17;99460.63;6957497;28;20333;-80
2022/06/10 04:02:39;;;;;;;3.90;3.50;;;;;;;16.52;57.83;99463.09;6959688;28;20322;-80
2022/06/10 04:06:02;;;;;;;7.43;3.23;;;;;;;16.63;57.55;99459.63;6967760;28;20201;-79
2022/06/10 04:09:23;;;;;;;3.73;3.30;;;;;;;16.22;57.98;99451.25;6986899;28;20198;-80
2022/06/10 04:12:45;;;;;;;6.43;3.57;;;;;;;16.44;58.51;99452.50;6987118;28;20227;-80
2022/06/10 04:16:07;;;;;;;5.87;3.97;;;;;;;16.79;57.64;99466.31;6980358;28;20203;-80
2022/06/10 04:19:29;;;;;;;6.03;3.70;;;;;;;16.63;57.98;99467.78;6976528;28;20294;-79
2022/06/10 04:22:52;;;;;;;4.13;3.40;;;;;;;16.65;58.02;99462.13;6976098;28;20294;-78
2022/06/10 04:26:13;;;;;;;6.13;3.50;;;;;;;16.69;57.75;99472.31;6976633;28;20210;-79
2022/06/10 04:29:35;;;;;;;5.23;3.30;;;;;;;16.62;58.23;99457.97;6974978;28;20241;-78
2022/06/10 04:32:57;;;;;;;7.13;3.37;;;;;;;16.34;58.33;99473.13;6975868;28;20214;-79
2022/06/10 04:36:19;;;;;;;5.57;4.00;;;;;;;16.22;59.38;99472.22;6975937;28;20275;-79
2022/06/10 04:39:42;;;;;;;3.90;3.20;;;;;;;16.50;58.44;99478.00;6975005;28;20772;-78
2022/06/10 04:43:05;;;;;;;5.00;3.47;;;;;;;16.17;59.62;99485.66;6975406;28;20216;-79
2022/06/10 04:46:28;;;;;;;6.17;3.87;;;;;;;16.68;58.32;99478.00;6974810;28;20203;-79
2022/06/10 04:49:49;;;;;;;3.97;3.07;;;;;;;16.75;57.98;99455.06;6975105;28;20226;-79
2022/06/10 04:53:12;;;;;;;3.50;3.20;;;;;;;17.58;55.77;99448.66;6975070;28;20292;-80
2022/06/10 04:56:35;;;;;;;5.37;3.00;;;;;;;18.06;54.53;99454.78;6977343;28;20270;-79
2022/06/10 04:59:56;;;;;;;3.37;3.00;;;;;;;18.55;53.83;99480.75;6955569;28;20320;-79
2022/06/10 05:03:18;;;;;;;4.10;2.73;;;;;;;18.48;53.60;99471.84;6948617;28;20300;-81
2022/06/10 05:06:40;;;;;;;5.03;2.80;;;;;;;18.34;53.62;99468.53;6948775;28;20234;-79
2022/06/10 05:10:02;;;;;;;5.67;3.00;;;;;;;19.25;51.57;99477.63;6961276;28;20363;-79
2022/06/10 05:13:24;;;;;;;3.00;2.70;;;;;;;19.70;50.61;99474.88;6975787;28;20271;-79
2022/06/10 05:16:46;;;;;;;5.53;2.77;;;;;;;20.36;49.48;99469.41;6974923;28;20306;-79
2022/06/10 05:20:10;;;;;;;3.93;2.77;;;;;;;20.12;48.58;99478.91;6974621;28;20273;-80
2022/06/10 05:23:32;;;;;;;4.30;2.80;;;;;;;19.85;49.96;99466.91;6965923;28;20286;-80
2022/06/10 05:26:54;;;;;;;3.77;2.67;;;;;;;19.35;51.59;99493.38;6971431;28;20352;-80
2022/06/10 05:30:19;;;;;;;3.70;2.63;;;;;;;20.24;50.04;99471.41;6973023;28;20218;-80
2022/06/10 05:37:23;;;;;;;3.77;2.67;;;;;;;20.41;49.22;99494.13;6947424;28;20563;-80
2022/06/10 05:40:45;;;;;;;3.97;2.70;;;;;;;20.18;49.91;99458.72;6947005;28;20234;-81
2022/06/10 05:44:06;;;;;;;4.43;2.57;;;;;;;20.52;49.49;99494.03;6947104;28;20219;-79
2022/06/10 05:47:33;;;;;;;8.17;2.77;;;;;;;20.55;49.63;99481.72;6948375;28;20298;-79
2022/06/10 05:50:56;;;;;;;6.83;2.90;;;;;;;20.29;48.31;99493.41;6948965;28;20231;-79
2022/06/10 05:54:18;;;;;;;5.50;2.63;;;;;;;20.81;48.84;99497.47;6957775;28;20214;-78
2022/06/10 05:57:40;;;;;;;4.33;2.70;;;;;;;20.88;47.91;99467.94;6977017;28;20245;-79
2022/06/10 06:01:01;;;;;;;6.03;2.40;;;;;;;21.92;45.46;99482.84;6962792;28;20235;-79
2022/06/10 06:04:24;;;;;;;4.80;2.33;;;;;;;22.93;42.80;99489.84;6948113;28;20204;-79
2022/06/10 06:07:46;;;;;;;3.50;2.30;;;;;;;22.18;44.57;99486.63;6946905;28;20562;-78
2022/06/10 06:11:09;;;;;;;5.60;2.70;;;;;;;21.73;45.63;99489.78;6946725;28;20692;-79
2022/06/10 06:14:32;;;;;;;6.17;2.33;;;;;;;21.88;46.47;99484.44;6946967;28;20359;-79
2022/06/10 06:17:54;;;;;;;5.77;2.80;;;;;;;23.21;43.36;99454.50;6949272;28;20212;-79
2022/06/10 06:21:18;;;;;;;5.57;2.47;;;;;;;23.35;43.05;99505.19;6946305;28;20317;-80
2022/06/10 06:24:40;;;;;;;4.43;2.47;;;;;;;23.30;42.92;99507.91;6947190;28;20203;-78
2022/06/10 06:28:01;;;;;;;5.17;2.23;;;;;;;23.71;42.02;99509.69;6951913;28;20218;-78
2022/06/10 06:31:23;;;;;;;3.63;2.00;;;;;;;23.29;43.29;99503.50;6974274;28;20263;-79
2022/06/10 06:34:44;;;;;;;3.87;2.20;;;;;;;22.57;44.59;99513.59;6971453;28;20298;-79
2022/06/10 06:38:08;;;;;;;4.80;2.33;;;;;;;23.78;43.23;99501.97;6971337;28;20292;-79
2022/06/10 06:41:29;;;;;;;4.97;2.23;;;;;;;23.47;42.61;99510.44;6973462;28;20316;-79
2022/06/10 06:44:51;;;;;;;4.80;2.10;;;;;;;24.30;41.22;99510.84;6974065;28;20249;-78
2022/06/10 06:48:13;;;;;;;3.10;2.30;;;;;;;24.62;40.99;99510.56;6973843;28;20218;-79
2022/06/10 06:51:36;;;;;;;4.10;2.30;;;;;;;24.65;40.44;99507.25;6973921;28;20232;-79
2022/06/10 06:54:59;;;;;;;5.53;2.40;;;;;;;24.25;41.29;99507.28;6954146;28;20275;-79
2022/06/10 06:58:20;;;;;;;3.10;1.90;;;;;;;24.02;41.11;99505.88;6946132;28;20203;-79
2022/06/10 07:01:42;;;;;;;2.97;2.07;;;;;;;23.98;40.74;99514.97;6946683;28;20224;-79
2022/06/10 07:05:04;;;;;;;6.83;2.67;;;;;;;24.03;40.48;99499.28;6948213;28;20209;-81
2022/06/10 07:08:31;;;;;;;4.57;2.20;;;;;;;24.57;40.20;99505.06;6945791;28;20206;-79
2022/06/10 07:11:54;;;;;;;3.30;2.30;;;;;;;24.80;39.39;99513.56;6946491;28;20239;-79
2022/06/10 07:15:15;;;;;;;3.53;1.77;;;;;;;25.22;38.65;99502.06;6946877;28;20208;-79
2022/06/10 07:18:38;;;;;;;5.53;2.37;;;;;;;24.78;39.08;99523.22;6945870;28;20216;-80
2022/06/10 07:21:59;;;;;;;4.90;2.10;;;;;;;25.16;38.76;99531.66;6948971;28;20249;-80
2022/06/10 07:25:22;;;;;;;3.10;1.80;;;;;;;25.20;38.24;99518.13;6952455;28;20257;-79
2022/06/10 07:28:45;;;;;;;4.93;2.17;;;;;;;25.17;37.39;99525.03;6962510;28;20204;-79
2022/06/10 07:32:07;;;;;;;7.00;2.40;;;;;;;26.27;37.68;99516.09;6979208;28;20597;-80
2022/06/10 07:35:29;;;;;;;6.97;2.10;;;;;;;26.09;37.36;99505.75;6979181;28;20207;-81
2022/06/10 07:38:51;;;;;;;14.43;2.73;;;;;;;24.94;38.81;99487.03;6978634;28;20248;-78
2022/06/10 07:42:12;;;;;;;3.57;1.80;;;;;;;25.41;37.87;99515.00;6978522;28;20238;-80
2022/06/10 07:45:35;;;;;;;4.67;2.20;;;;;;;25.93;37.42;99484.03;6978750;28;20240;-79
2022/06/10 07:48:57;;;;;;;5.20;2.30;;;;;;;26.03;36.27;99498.63;6977931;28;20285;-80
2022/06/10 07:52:18;;;;;;;4.53;2.30;;;;;;;26.07;35.99;99499.66;6978672;28;20221;-79
2022/06/10 07:55:41;;;;;;;8.87;2.33;;;;;;;26.27;36.32;99496.75;6977453;28;20343;-79
2022/06/10 07:59:02;;;;;;;7.83;2.53;;;;;;;25.27;37.66;99489.13;6977664;28;20202;-80
2022/06/10 08:02:25;;;;;;;5.87;2.20;;;;;;;26.70;35.35;99493.03;6977847;28;20223;-79
2022/06/10 08:05:47;;;;;;;3.03;2.00;;;;;;;26.67;34.87;99493.59;6977889;28;20202;-80
2022/06/10 08:09:09;;;;;;;4.80;2.07;;;;;;;26.76;34.67;99483.56;6976142;28;20298;-80
2022/06/10 08:12:31;;;;;;;4.37;2.30;;;;;;;27.64;34.39;99494.91;6976988;28;20227;-80
2022/06/10 08:15:52;;;;;;;5.47;2.30;;;;;;;25.11;35.95;99497.72;6977619;28;20247;-79
2022/06/10 08:19:15;;;;;;;5.60;2.33;;;;;;;27.71;33.52;99498.16;6976205;28;20263;-80
2022/06/10 08:22:37;;;;;;;4.80;2.13;;;;;;;27.47;32.59;99478.81;6977067;28;20823;-80
2022/06/10 08:26:00;;;;;;;4.63;2.10;;;;;;;28.38;32.21;99476.28;6964070;28;20304;-80
2022/06/10 08:29:22;;;;;;;3.97;1.80;;;;;;;28.88;32.13;99491.16;6963394;28;20206;-79
2022/06/10 08:32:44;;;;;;;4.83;2.57;;;;;;;28.99;32.12;99495.41;6976593;28;20230;-80
2022/06/10 08:36:08;;;;;;;4.73;2.10;;;;;;;29.22;30.28;99498.00;6984787;28;20207;-80
2022/06/10 08:39:30;;;;;;;4.40;2.20;;;;;;;28.90;30.29;99484.16;6979270;28;20223;-79
2022/06/10 08:42:54;;;;;;;3.67;2.10;;;;;;;26.18;34.20;99495.72;6979403;28;20299;-81
2022/06/10 08:46:24;;;;;;;4.40;2.40;;;;;;;27.19;31.51;99468.66;6983089;28;20214;-79
2022/06/10 08:50:06;;;;;;;3.70;2.20;;;;;;;25.21;35.06;99461.78;6979995;28;20197;-80
2022/06/10 08:53:52;;;;;;;8.43;2.23;;;;;;;27.31;32.25;99488.44;6977344;28;20217;-79
2022/06/10 08:57:22;;;;;;;7.53;2.57;;;;;;;27.21;31.60;99499.66;6982813;28;20207;-80
2022/06/10 09:00:44;;;;;;;5.00;2.03;;;;;;;25.47;35.39;99493.69;6976754;28;20716;-78
2022/06/10 09:04:23;;;;;;;6.17;2.30;;;;;;;27.41;31.56;99485.53;6976270;28;20215;-80
2022/06/10 09:07:46;;;;;;;5.07;1.93;;;;;;;26.69;32.78;99476.72;6975198;28;20704;-80
2022/06/10 09:11:17;;;;;;;5.43;2.20;;;;;;;26.92;33.40;99498.88;6975134;28;20327;-80
2022/06/10 09:14:41;;;;;;;5.23;2.10;;;;;;;27.67;32.00;99486.81;6975125;28;20183;-80
2022/06/10 09:18:07;;;;;;;2.50;1.70;;;;;;;28.80;31.63;99487.16;6974369;28;20344;-80
2022/06/10 09:21:33;;;;;;;7.17;2.17;;;;;;;29.20;28.65;99489.13;6975580;28;20235;-80
2022/06/10 09:24:59;;;;;;;4.10;2.37;;;;;;;29.58;27.43;99475.84;6975924;28;20543;-80
2022/06/10 09:28:23;;;;;;;5.10;2.20;;;;;;;28.68;29.22;99466.59;6980144;28;20211;-80
2022/06/10 09:31:51;;;;;;;7.40;2.30;;;;;;;29.28;29.23;99482.88;6965842;28;20232;-80
2022/06/10 09:35:18;;;;;;;4.50;1.80;;;;;;;29.34;27.78;99444.66;6947982;28;20207;-80
2022/06/10 09:38:53;;;;;;;4.30;1.97;;;;;;;28.55;27.89;99487.63;6958571;28;20545;-79
2022/06/10 09:42:26;;;;;;;6.33;1.67;;;;;;;30.01;26.71;99457.59;6957411;28;20286;-80
2022/06/10 09:46:10;;;;;;;5.30;1.83;;;;;;;29.54;26.48;99458.16;6966754;28;20208;-79
2022/06/10 09:49:51;;;;;;;4.97;1.90;;;;;;;29.58;26.87;99489.72;6958828;28;20688;-79
2022/06/10 09:53:24;;;;;;;5.17;1.90;;;;;;;29.30;27.47;99488.94;6955736;28;20219;-80
2022/06/10 09:56:59;;;;;;;4.37;1.70;;;;;;;29.90;25.19;99473.66;6953934;28;20213;-80
2022/06/10 10:00:24;;;;;;;4.97;1.73;;;;;;;29.66;27.46;99473.13;6951754;28;20240;-79
2022/06/10 10:04:03;;;;;;;4.37;2.53;;;;;;;29.68;26.12;99465.31;6953787;28;20217;-80
2022/06/10 10:07:28;;;;;;;3.00;1.60;;;;;;;30.56;23.78;99457.00;6955308;28;20187;-79
2022/06/10 10:10:53;;;;;;;4.83;1.90;;;;;;;29.89;25.73;99457.31;6953551;28;20241;-79
2022/06/10 10:14:41;;;;;;;5.60;1.83;;;;;;;30.24;24.82;99473.16;6954930;28;20594;-80
2022/06/10 10:18:42;;;;;;;2.60;1.53;;;;;;;30.98;23.59;99461.97;6951964;28;20216;-80
2022/06/10 10:22:23;;;;;;;2.97;1.90;;;;;;;30.20;25.52;99458.22;6894512;28;20246;-80
2022/06/10 10:25:45;;;;;;;4.73;2.20;;;;;;;29.06;26.40;99459.72;6906729;28;20687;-80
2022/06/10 10:29:12;;;;;;;6.63;1.93;;;;;;;29.42;26.00;99453.09;6971134;28;20212;-77
2022/06/10 10:32:36;;;;;;;3.23;1.83;;;;;;;29.89;26.22;99441.44;6975681;28;20237;-78
2022/06/10 10:35:59;;;;;;;2.27;1.47;;;;;;;29.26;25.64;99459.31;6976842;28;20196;-79
2022/06/10 10:39:34;;;;;;;3.87;1.67;;;;;;;29.71;25.13;99455.53;6978360;28;20212;-79
2022/06/10 10:42:58;;;;;;;3.10;2.17;;;;;;;29.39;26.27;99444.56;6977212;28;20275;-80
2022/06/10 10:46:31;;;;;;;5.03;1.87;;;;;;;30.55;24.93;99438.63;6976503;28;20253;-80
2022/06/10 10:49:55;;;;;;;4.13;1.53;;;;;;;30.13;25.30;99452.31;6975799;28;20227;-77
2022/06/10 10:53:24;;;;;;;3.20;1.77;;;;;;;30.71;24.21;99450.22;6975882;28;20596;-78
2022/06/10 10:56:49;;;;;;;3.10;1.57;;;;;;;30.72;24.69;99396.16;6981461;28;20298;-78
2022/06/10 11:00:32;;;;;;;4.20;1.67;;;;;;;30.67;25.62;99441.66;6983974;28;20236;-81
2022/06/10 11:03:59;;;;;;;2.53;1.87;;;;;;;30.95;24.40;99451.44;6990153;28;20737;-79
2022/06/10 11:07:26;;;;;;;7.07;2.17;;;;;;;30.74;23.88;99416.16;6992534;28;20212;-79
2022/06/10 11:11:17;;;;;;;3.00;1.87;;;;;;;28.58;27.15;99442.63;6981856;28;20818;-78
2022/06/10 11:14:40;;;;;;;3.07;1.67;;;;;;;29.56;26.45;99434.47;6979739;28;20219;-79
2022/06/10 11:18:02;;;;;;;2.53;1.77;;;;;;;31.00;24.82;99434.59;6977886;28;20203;-79
2022/06/10 11:21:26;;;;;;;3.73;1.80;;;;;;;30.93;24.71;99439.81;6978483;28;20324;-79
2022/06/10 11:24:50;;;;;;;3.30;1.80;;;;;;;31.68;22.86;99442.28;6980006;28;20208;-79
2022/06/10 11:28:20;;;;;;;3.73;1.93;;;;;;;31.68;24.33;99436.72;6979325;28;20735;-79
2022/06/10 11:31:47;;;;;;;3.03;1.60;;;;;;;29.72;25.50;99441.31;6972848;28;20232;-78
2022/06/10 11:35:23;;;;;;;6.17;1.90;;;;;;;29.85;25.61;99437.63;6950028;28;20206;-77
2022/06/10 11:38:51;;;;;;;2.30;1.57;;;;;;;30.00;25.72;99403.91;6948894;28;20202;-78
2022/06/10 11:42:17;;;;;;;4.97;1.93;;;;;;;29.58;26.82;99423.03;6969436;28;20235;-79
2022/06/10 11:45:44;;;;;;;4.30;1.70;;;;;;;29.49;26.36;99430.44;6977709;28;20228;-79
2022/06/10 11:49:13;;;;;;;3.77;1.47;;;;;;;31.43;24.84;99413.22;6977012;28;20188;-80
2022/06/10 11:52:38;;;;;;;3.53;1.90;;;;;;;29.50;25.75;99420.97;6978877;28;20318;-79
2022/06/10 11:59:46;;;;;;;3.57;1.73;;;;;;;31.96;24.86;99410.94;6979161;28;20202;-79
2022/06/10 12:03:15;;;;;;;4.23;1.93;;;;;;;31.92;23.43;99407.19;6977597;28;20364;-78
2022/06/10 12:06:42;;;;;;;4.57;2.13;;;;;;;31.50;24.85;99402.44;6976790;28;20300;-79
2022/06/10 12:10:06;;;;;;;5.53;1.57;;;;;;;31.00;25.54;99408.69;6976276;28;20265;-79
2022/06/10 12:13:28;;;;;;;3.00;1.80;;;;;;;31.68;24.29;99378.97;6977378;28;20285;-79
2022/06/10 12:16:53;;;;;;;2.67;1.80;;;;;;;31.56;24.18;99398.31;6976338;28;20237;-78
2022/06/10 12:20:21;;;;;;;2.20;1.50;;;;;;;31.68;23.20;99400.44;6974546;28;20689;-79
2022/06/10 12:23:47;;;;;;;5.60;1.97;;;;;;;30.73;nan;99389.44;6977177;28;20624;-78
2022/06/10 12:27:15;;;;;;;3.43;1.90;;;;;;;29.25;26.26;99397.34;6976743;28;20197;-78
2022/06/10 12:30:40;;;;;;;4.03;2.20;;;;;;;30.54;25.02;99395.22;6970512;28;20581;-79
2022/06/10 12:34:04;;;;;;;2.57;1.40;;;;;;;30.26;25.07;99365.94;6977426;28;20280;-79
2022/06/10 12:37:33;;;;;;;3.37;1.90;;;;;;;28.30;27.11;99371.53;6975847;28;20653;-79
2022/06/10 12:41:00;;;;;;;2.60;1.70;;;;;;;29.89;25.63;99379.47;6976656;28;20735;-79
2022/06/10 12:44:28;;;;;;;4.07;1.87;;;;;;;30.28;24.57;99377.59;6973639;28;20231;-78
2022/06/10 12:47:55;;;;;;;6.37;1.90;;;;;;;31.75;24.01;99370.13;6975351;28;20292;-78
2022/06/10 12:51:28;;;;;;;3.60;1.87;;;;;;;31.52;23.20;99374.19;6977148;28;20328;-79
2022/06/10 12:54:58;;;;;;;3.50;1.83;;;;;;;32.14;23.73;99365.13;6972061;28;20199;-79
2022/06/10 12:58:49;;;;;;;3.87;2.30;;;;;;;32.06;23.55;99371.56;6950226;28;20187;-80
2022/06/10 13:02:33;;;;;;;3.00;1.60;;;;;;;32.21;22.98;99368.25;6928641;28;20250;-79
2022/06/10 13:05:55;;;;;;;3.97;1.83;;;;;;;32.06;23.08;99354.81;6948029;28;20201;-79
2022/06/10 13:09:29;;;;;;;3.53;1.70;;;;;;;32.63;21.72;99325.41;6948018;28;20203;-80
2022/06/10 13:12:50;;;;;;;3.80;1.87;;;;;;;31.88;23.01;99357.94;6953576;28;20654;-80
2022/06/10 13:16:38;;;;;;;1.83;1.40;;;;;;;30.94;23.08;99354.25;6979098;28;20666;-79
2022/06/10 13:20:21;;;;;;;2.50;1.53;;;;;;;31.88;22.14;99339.25;6967389;28;20278;-79
2022/06/10 13:23:49;;;;;;;3.20;1.23;;;;;;;32.24;22.41;99347.19;6976145;28;20547;-79
2022/06/10 13:27:14;;;;;;;2.13;1.57;;;;;;;31.15;21.84;99341.38;6975440;28;20247;-79
2022/06/10 13:30:36;;;;;;;2.63;1.63;;;;;;;30.95;23.17;99342.81;6974873;28;20583;-79
2022/06/10 13:34:02;;;;;;;3.07;1.40;;;;;;;31.00;22.57;99339.03;6979132;28;20220;-79
2022/06/10 13:37:24;;;;;;;3.30;1.57;;;;;;;30.71;22.87;99336.06;6977984;28;20226;-79
2022/06/10 13:40:48;;;;;;;2.17;1.43;;;;;;;31.64;21.61;99327.78;6977930;28;20816;-79
2022/06/10 13:44:25;;;;;;;4.87;1.20;;;;;;;31.82;22.24;99320.22;6971795;28;20216;-80
2022/06/10 13:47:54;;;;;;;3.73;1.40;;;;;;;30.85;22.83;99328.38;6992046;28;20669;-80
2022/06/10 13:51:28;;;;;;;3.07;1.60;;;;;;;30.83;22.01;99328.69;6959526;28;20230;-80
2022/06/10 13:54:49;;;;;;;2.40;1.30;;;;;;;30.44;22.12;99323.13;6970215;28;20198;-80
2022/06/10 13:58:19;;;;;;;1.80;1.60;;;;;;;31.02;22.53;99314.47;6978189;28;20212;-80
2022/06/10 14:01:41;;;;;;;2.27;1.40;;;;;;;29.78;23.53;99314.91;6970852;28;20320;-80
2022/06/10 14:05:04;;;;;;;1.90;1.80;;;;;;;29.30;23.11;99293.66;6950195;28;20231;-79
2022/06/10 14:08:29;;;;;;;2.83;1.33;;;;;;;30.28;23.04;99318.31;6948539;28;20299;-80
2022/06/10 14:12:06;;;;;;;2.83;1.27;;;;;;;30.45;23.10;99321.19;6949463;28;20641;-79
2022/06/10 14:15:29;;;;;;;1.50;1.40;;;;;;;30.84;22.44;99299.69;6949592;28;20213;-80
2022/06/10 14:18:52;;;;;;;2.17;1.33;;;;;;;29.52;22.02;99308.34;6949356;28;20224;-80
2022/06/10 14:22:18;;;;;;;4.27;1.47;;;;;;;31.38;20.88;99310.25;6960822;28;20260;-80
2022/06/10 14:25:41;;;;;;;2.13;1.30;;;;;;;30.88;20.31;99311.84;6976541;28;20198;-80
2022/06/10 14:29:15;;;;;;;3.63;1.40;;;;;;;31.10;21.44;99308.91;6972390;28;20209;-80
2022/06/10 14:32:37;;;;;;;2.83;1.37;;;;;;;30.55;21.89;99309.75;6974815;28;20225;-80
2022/06/10 14:36:15;;;;;;;2.10;1.40;;;;;;;31.00;21.57;99306.44;6968614;28;20255;-80
2022/06/10 14:39:37;;;;;;;3.80;1.27;;;;;;;31.40;21.42;99307.13;6952877;28;20227;-78
2022/06/10 14:43:17;;;;;;;2.90;1.30;;;;;;;31.90;20.95;99313.84;6953225;28;20948;-78
2022/06/10 14:46:38;;;;;;;2.27;1.43;;;;;;;30.70;22.53;99298.19;6974180;28;20202;-78
2022/06/10 14:50:06;;;;;;;1.70;1.40;;;;;;;31.06;22.85;99307.91;6979954;28;20316;-78
2022/06/10 14:53:28;;;;;;;1.57;1.43;;;;;;;31.28;22.74;99305.00;6979779;28;20190;-78
2022/06/10 14:56:52;;;;;;;1.60;1.43;;;;;;;31.44;22.03;99300.56;6961341;28;20201;-81
2022/06/10 15:00:17;;;;;;;3.23;1.77;;;;;;;31.87;21.54;99297.75;6954894;28;20238;-81
2022/06/10 15:03:39;;;;;;;7.27;1.83;;;;;;;31.68;21.60;99308.41;6955066;28;20247;-81
2022/06/10 15:07:01;;;;;;;3.70;1.50;;;;;;;31.94;20.90;99292.47;6954589;28;20204;-81
2022/06/10 15:10:23;;;;;;;2.50;1.30;;;;;;;31.83;21.42;99286.44;6954578;28;20226;-80
2022/06/10 15:13:46;;;;;;;1.37;1.17;;;;;;;31.83;20.96;99280.84;6955028;28;20301;-80
2022/06/10 15:17:11;;;;;;;1.57;1.10;;;;;;;31.41;21.77;99275.31;6969657;28;20308;-79
2022/06/10 15:20:34;;;;;;;5.13;1.47;;;;;;;31.50;21.67;99287.28;6981830;28;20219;-80
2022/06/10 15:23:55;;;;;;;1.87;1.23;;;;;;;31.56;21.73;99283.19;6979464;28;20237;-80
2022/06/10 15:27:17;;;;;;;2.10;1.30;;;;;;;31.06;21.65;99290.38;6963207;28;20208;-79
2022/06/10 15:30:41;;;;;;;2.03;1.07;;;;;;;30.71;22.69;99252.53;6951930;28;20258;-79
2022/06/10 15:34:04;;;;;;;2.03;1.30;;;;;;;30.53;22.94;99275.84;6952790;28;20212;-79
2022/06/10 15:41:05;;;;;;;1.97;1.30;;;;;;;30.04;23.74;99270.56;6949800;28;20223;-78
2022/06/10 15:44:29;;;;;;;2.93;1.70;;;;;;;30.78;21.80;99283.47;6974829;28;20650;-78
2022/06/10 15:47:50;;;;;;;2.10;1.23;;;;;;;30.70;21.19;99279.53;6977193;28;20205;-78
2022/06/10 15:51:19;;;;;;;2.60;1.30;;;;;;;31.07;21.97;99272.53;6977290;28;20297;-78
2022/06/10 15:58:23;;;;;;;1.70;1.20;;;;;;;30.57;23.66;99274.91;6976542;28;20191;-78
2022/06/10 16:01:46;;;;;;;3.00;1.60;;;;;;;30.13;23.89;99268.69;6965572;28;20234;-78
2022/06/10 16:05:15;;;;;;;5.50;1.60;;;;;;;30.28;23.61;99283.00;6949852;28;20213;-78
2022/06/10 16:08:38;;;;;;;2.60;1.77;;;;;;;30.03;25.23;99247.50;6948809;28;20203;-78
2022/06/10 16:15:43;;;;;;;3.27;1.77;;;;;;;29.74;26.91;99252.78;6949678;28;20643;-79
2022/06/10 16:19:05;;;;;;;3.00;1.47;;;;;;;29.90;26.82;99280.97;6963899;28;20229;-78
2022/06/10 16:22:26;;;;;;;2.73;1.30;;;;;;;29.29;27.60;99264.19;6976787;28;20286;-78
2022/06/10 16:25:51;;;;;;;2.60;1.70;;;;;;;29.14;28.69;99262.59;6977129;28;20297;-79
2022/06/10 16:29:16;;;;;;;2.80;1.50;;;;;;;29.42;28.15;99257.78;6976228;28;20216;-79
2022/06/10 16:32:39;;;;;;;3.10;1.70;;;;;;;29.68;28.48;99256.00;6976314;28;20235;-79
2022/06/10 16:36:00;;;;;;;5.27;1.70;;;;;;;29.79;27.59;99272.06;6976838;28;20699;-78
2022/06/10 16:39:22;;;;;;;2.37;1.57;;;;;;;29.97;27.70;99247.97;6975798;28;20217;-78